UAL280 KMEM-KABQ
Flight info
| Callsign | UAL280 |
|---|---|
| Flight time | N/A |
| Altitude | 38000 |
| Route | ZUMIT5 FOXOM FSM IRW J78 TCC KIIDD COLTR4 |
| Aircraft | B752/M-SDE2E3FGHIJ3J4J7RWXY/LB1 |
Departure
| Time | N/A |
|---|---|
| Airport | Memphis International Airport (KMEM) |
Arrival
| Time | 2026-05-04 02:45 |
|---|---|
| Airport | Albuquerque International Sunport (KABQ) |
| Time | Latitude | Longitude | Altitude | Speed | Heading |
|---|---|---|---|---|---|
| 2026-05-04 01:36 | 35.30544 | -99.93353 | 37945 ft | 351 kts | 271° |
| 2026-05-04 01:37 | 35.30347 | -99.99160 | 37938 ft | 351 kts | 272° |
| 2026-05-04 01:37 | 35.30146 | -100.05151 | 37939 ft | 351 kts | 271° |
| 2026-05-04 01:38 | 35.29946 | -100.11095 | 37935 ft | 350 kts | 271° |
| 2026-05-04 01:38 | 35.29740 | -100.17070 | 37923 ft | 350 kts | 272° |
| 2026-05-04 01:39 | 35.29535 | -100.22989 | 37928 ft | 350 kts | 271° |
| 2026-05-04 01:39 | 35.29326 | -100.28932 | 37926 ft | 349 kts | 271° |
| 2026-05-04 01:40 | 35.29114 | -100.34856 | 37928 ft | 348 kts | 271° |
| 2026-05-04 01:40 | 35.28900 | -100.40772 | 37935 ft | 347 kts | 271° |
| 2026-05-04 01:41 | 35.28684 | -100.46652 | 37941 ft | 346 kts | 272° |
| 2026-05-04 01:41 | 35.28465 | -100.52528 | 37945 ft | 345 kts | 272° |
| 2026-05-04 01:42 | 35.28247 | -100.58368 | 37948 ft | 344 kts | 271° |
| 2026-05-04 01:42 | 35.28023 | -100.64208 | 37955 ft | 343 kts | 272° |
| 2026-05-04 01:43 | 35.27797 | -100.70056 | 37972 ft | 343 kts | 271° |
| 2026-05-04 01:43 | 35.27570 | -100.75885 | 37972 ft | 344 kts | 271° |
| 2026-05-04 01:44 | 35.27339 | -100.81719 | 37980 ft | 344 kts | 271° |
| 2026-05-04 01:44 | 35.27106 | -100.87556 | 37976 ft | 344 kts | 271° |
| 2026-05-04 01:45 | 35.26870 | -100.93377 | 37974 ft | 344 kts | 271° |
| 2026-05-04 01:45 | 35.26510 | -101.02134 | 37982 ft | 344 kts | 271° |
| 2026-05-04 01:46 | 35.26270 | -101.07971 | 37978 ft | 344 kts | 272° |
| 2026-05-04 01:46 | 35.26154 | -101.13827 | 37983 ft | 343 kts | 272° |
| 2026-05-04 01:47 | 35.26029 | -101.19648 | 37991 ft | 343 kts | 272° |
| 2026-05-04 01:47 | 35.25899 | -101.25450 | 37990 ft | 343 kts | 272° |
| 2026-05-04 01:48 | 35.25764 | -101.31299 | 37986 ft | 342 kts | 272° |
| 2026-05-04 01:48 | 35.25626 | -101.37117 | 37990 ft | 342 kts | 272° |
| 2026-05-04 01:49 | 35.25486 | -101.42886 | 37987 ft | 341 kts | 272° |
| 2026-05-04 01:49 | 35.25342 | -101.48707 | 37982 ft | 341 kts | 272° |
| 2026-05-04 01:50 | 35.25197 | -101.54475 | 37987 ft | 340 kts | 272° |
| 2026-05-04 01:50 | 35.25047 | -101.60272 | 37992 ft | 339 kts | 272° |
| 2026-05-04 01:51 | 35.24896 | -101.66036 | 38004 ft | 338 kts | 271° |
| 2026-05-04 01:51 | 35.24743 | -101.71767 | 38015 ft | 339 kts | 271° |
| 2026-05-04 01:52 | 35.24587 | -101.77541 | 38010 ft | 340 kts | 271° |
| 2026-05-04 01:52 | 35.24427 | -101.83330 | 38014 ft | 340 kts | 271° |
| 2026-05-04 01:53 | 35.24263 | -101.89154 | 38010 ft | 341 kts | 271° |
| 2026-05-04 01:53 | 35.24098 | -101.94923 | 37999 ft | 342 kts | 271° |
| 2026-05-04 01:54 | 35.23929 | -102.00706 | 38010 ft | 342 kts | 271° |
| 2026-05-04 01:54 | 35.23758 | -102.06519 | 38005 ft | 342 kts | 271° |
| 2026-05-04 01:55 | 35.23582 | -102.12372 | 38013 ft | 342 kts | 271° |
| 2026-05-04 01:55 | 35.23406 | -102.18161 | 38007 ft | 342 kts | 271° |
| 2026-05-04 01:56 | 35.23226 | -102.23978 | 38014 ft | 342 kts | 271° |
| 2026-05-04 01:56 | 35.23041 | -102.29820 | 38016 ft | 342 kts | 271° |
| 2026-05-04 01:57 | 35.22857 | -102.35612 | 38016 ft | 342 kts | 271° |
| 2026-05-04 01:57 | 35.22669 | -102.41422 | 38013 ft | 342 kts | 271° |
| 2026-05-04 01:58 | 35.22477 | -102.47226 | 38016 ft | 341 kts | 271° |
| 2026-05-04 01:58 | 35.22285 | -102.52992 | 38020 ft | 341 kts | 271° |
| 2026-05-04 01:59 | 35.22090 | -102.58781 | 38020 ft | 340 kts | 270° |
| 2026-05-04 01:59 | 35.21891 | -102.64556 | 38017 ft | 340 kts | 271° |
| 2026-05-04 02:00 | 35.21688 | -102.70367 | 38042 ft | 340 kts | 270° |
| 2026-05-04 02:00 | 35.21486 | -102.76135 | 38042 ft | 341 kts | 270° |
| 2026-05-04 02:01 | 35.21278 | -102.81934 | 38036 ft | 342 kts | 270° |
| 2026-05-04 02:01 | 35.21069 | -102.87728 | 38032 ft | 343 kts | 270° |
| 2026-05-04 02:02 | 35.20855 | -102.93538 | 38031 ft | 343 kts | 270° |
| 2026-05-04 02:02 | 35.20637 | -102.99374 | 38023 ft | 344 kts | 270° |
| 2026-05-04 02:03 | 35.20418 | -103.05189 | 38029 ft | 344 kts | 270° |
| 2026-05-04 02:03 | 35.20196 | -103.11016 | 38031 ft | 344 kts | 270° |
| 2026-05-04 02:04 | 35.19969 | -103.16875 | 38031 ft | 344 kts | 270° |
| 2026-05-04 02:04 | 35.19742 | -103.22698 | 38033 ft | 344 kts | 270° |
| 2026-05-04 02:05 | 35.19510 | -103.28540 | 38029 ft | 344 kts | 270° |
| 2026-05-04 02:05 | 35.19277 | -103.34354 | 38028 ft | 344 kts | 270° |
| 2026-05-04 02:06 | 35.19041 | -103.40185 | 38018 ft | 344 kts | 270° |
| 2026-05-04 02:06 | 35.18801 | -103.46020 | 38017 ft | 343 kts | 270° |
| 2026-05-04 02:07 | 35.18559 | -103.51844 | 37995 ft | 344 kts | 270° |
| 2026-05-04 02:07 | 35.18314 | -103.57670 | 37991 ft | 343 kts | 270° |
| 2026-05-04 02:08 | 35.18065 | -103.63479 | 37844 ft | 338 kts | 270° |
| 2026-05-04 02:08 | 35.17942 | -103.66292 | 37952 ft | 330 kts | 270° |
| 2026-05-04 02:08 | 35.17820 | -103.69112 | 37823 ft | 335 kts | 269° |
| 2026-05-04 02:09 | 35.17696 | -103.71967 | 37545 ft | 343 kts | 269° |
| 2026-05-04 02:09 | 35.17567 | -103.74919 | 37276 ft | 351 kts | 270° |
| 2026-05-04 02:09 | 35.17433 | -103.77936 | 37019 ft | 360 kts | 270° |
| 2026-05-04 02:09 | 35.17296 | -103.81046 | 36760 ft | 369 kts | 269° |
| 2026-05-04 02:10 | 35.17155 | -103.84200 | 36495 ft | 377 kts | 269° |
| 2026-05-04 02:10 | 35.17010 | -103.87395 | 36231 ft | 382 kts | 270° |
| 2026-05-04 02:10 | 35.16862 | -103.90628 | 35966 ft | 383 kts | 269° |
| 2026-05-04 02:10 | 35.16714 | -103.93868 | 35693 ft | 381 kts | 269° |
| 2026-05-04 02:11 | 35.16564 | -103.97109 | 35411 ft | 382 kts | 269° |
| 2026-05-04 02:11 | 35.16412 | -104.00375 | 35138 ft | 384 kts | 269° |
| 2026-05-04 02:11 | 35.16262 | -104.03616 | 34867 ft | 387 kts | 269° |
| 2026-05-04 02:11 | 35.16107 | -104.06922 | 34590 ft | 389 kts | 269° |
| 2026-05-04 02:12 | 35.15951 | -104.10210 | 34181 ft | 387 kts | 269° |
| 2026-05-04 02:12 | 35.15795 | -104.13508 | 33309 ft | 386 kts | 270° |
| 2026-05-04 02:12 | 35.15642 | -104.16673 | 33175 ft | 367 kts | 270° |
| 2026-05-04 02:12 | 35.15494 | -104.19779 | 32446 ft | 370 kts | 270° |
| 2026-05-04 02:13 | 35.15344 | -104.22944 | 32241 ft | 369 kts | 270° |
| 2026-05-04 02:13 | 35.15192 | -104.26045 | 32088 ft | 364 kts | 270° |
| 2026-05-04 02:13 | 35.15044 | -104.29111 | 31929 ft | 361 kts | 270° |
| 2026-05-04 02:13 | 35.14895 | -104.32196 | 31770 ft | 364 kts | 270° |
| 2026-05-04 02:14 | 35.14743 | -104.35293 | 31617 ft | 367 kts | 269° |
| 2026-05-04 02:14 | 35.14591 | -104.38391 | 31448 ft | 367 kts | 270° |
| 2026-05-04 02:14 | 35.14435 | -104.41524 | 31284 ft | 367 kts | 270° |
| 2026-05-04 02:14 | 35.14280 | -104.44614 | 31128 ft | 368 kts | 270° |
| 2026-05-04 02:15 | 35.14125 | -104.47716 | 30922 ft | 369 kts | 270° |
| 2026-05-04 02:15 | 35.13967 | -104.50880 | 30751 ft | 369 kts | 269° |
| 2026-05-04 02:15 | 35.13810 | -104.53977 | 30593 ft | 370 kts | 270° |
| 2026-05-04 02:15 | 35.13650 | -104.57101 | 30440 ft | 371 kts | 269° |
| 2026-05-04 02:16 | 35.13489 | -104.60280 | 30275 ft | 370 kts | 269° |
| 2026-05-04 02:16 | 35.13326 | -104.63415 | 30115 ft | 371 kts | 270° |
| 2026-05-04 02:16 | 35.13165 | -104.66529 | 29971 ft | 372 kts | 269° |
| 2026-05-04 02:16 | 35.13000 | -104.69709 | 29837 ft | 373 kts | 269° |
| 2026-05-04 02:17 | 35.12836 | -104.72861 | 29698 ft | 373 kts | 269° |
| 2026-05-04 02:17 | 35.12670 | -104.76038 | 29562 ft | 373 kts | 269° |
| 2026-05-04 02:17 | 35.12505 | -104.79160 | 29423 ft | 372 kts | 269° |
| 2026-05-04 02:17 | 35.12339 | -104.82311 | 29289 ft | 371 kts | 269° |
| 2026-05-04 02:18 | 35.12172 | -104.85429 | 29156 ft | 370 kts | 269° |
| 2026-05-04 02:18 | 35.12004 | -104.88596 | 29024 ft | 372 kts | 269° |
| 2026-05-04 02:18 | 35.11834 | -104.91743 | 28867 ft | 372 kts | 269° |
| 2026-05-04 02:18 | 35.11665 | -104.94875 | 28624 ft | 372 kts | 268° |
| 2026-05-04 02:19 | 35.11491 | -104.98060 | 28295 ft | 370 kts | 269° |
| 2026-05-04 02:19 | 35.11326 | -105.01033 | 28127 ft | 341 kts | 269° |
| 2026-05-04 02:19 | 35.11125 | -105.03879 | 27997 ft | 330 kts | 265° |
| 2026-05-04 02:19 | 35.10720 | -105.06603 | 27917 ft | 317 kts | 263° |
| 2026-05-04 02:20 | 35.10327 | -105.09206 | 27608 ft | 310 kts | 263° |
| 2026-05-04 02:20 | 35.09942 | -105.11726 | 27591 ft | 295 kts | 263° |
| 2026-05-04 02:20 | 35.09566 | -105.14169 | 27201 ft | 293 kts | 263° |
| 2026-05-04 02:20 | 35.09190 | -105.16610 | 26626 ft | 296 kts | 263° |
| 2026-05-04 02:21 | 35.08802 | -105.19096 | 26140 ft | 295 kts | 263° |
| 2026-05-04 02:21 | 35.08421 | -105.21538 | 25764 ft | 292 kts | 263° |
| 2026-05-04 02:21 | 35.08043 | -105.23941 | 25377 ft | 288 kts | 262° |
| 2026-05-04 02:21 | 35.07667 | -105.26329 | 25006 ft | 285 kts | 263° |
| 2026-05-04 02:22 | 35.07292 | -105.28714 | 24654 ft | 288 kts | 262° |
| 2026-05-04 02:22 | 35.06914 | -105.31114 | 24320 ft | 292 kts | 262° |
| 2026-05-04 02:22 | 35.06522 | -105.33594 | 23982 ft | 295 kts | 262° |
| 2026-05-04 02:22 | 35.06135 | -105.36038 | 23655 ft | 294 kts | 263° |
| 2026-05-04 02:23 | 35.05749 | -105.38470 | 23335 ft | 292 kts | 262° |
| 2026-05-04 02:23 | 35.05364 | -105.40888 | 23038 ft | 289 kts | 262° |
| 2026-05-04 02:23 | 35.04981 | -105.43304 | 22744 ft | 289 kts | 262° |
| 2026-05-04 02:23 | 35.04596 | -105.45720 | 22461 ft | 290 kts | 262° |
| 2026-05-04 02:24 | 35.04213 | -105.48121 | 22177 ft | 290 kts | 262° |
| 2026-05-04 02:24 | 35.03827 | -105.50538 | 21915 ft | 287 kts | 262° |
| 2026-05-04 02:24 | 35.03443 | -105.52946 | 21596 ft | 289 kts | 262° |
| 2026-05-04 02:24 | 35.03056 | -105.55355 | 21252 ft | 288 kts | 262° |
| 2026-05-04 02:25 | 35.02673 | -105.57749 | 20912 ft | 286 kts | 262° |
| 2026-05-04 02:25 | 35.02297 | -105.60086 | 20620 ft | 279 kts | 262° |
| 2026-05-04 02:25 | 35.01925 | -105.62396 | 20330 ft | 272 kts | 262° |
| 2026-05-04 02:25 | 35.01565 | -105.64629 | 20005 ft | 267 kts | 262° |
| 2026-05-04 02:26 | 35.01209 | -105.66842 | 19696 ft | 261 kts | 262° |
| 2026-05-04 02:26 | 35.00864 | -105.68977 | 19400 ft | 256 kts | 262° |
| 2026-05-04 02:26 | 35.00523 | -105.71091 | 19112 ft | 251 kts | 262° |
| 2026-05-04 02:26 | 35.00184 | -105.73192 | 18689 ft | 253 kts | 262° |
| 2026-05-04 02:27 | 34.99844 | -105.75300 | 18209 ft | 256 kts | 262° |
| 2026-05-04 02:27 | 34.99495 | -105.77455 | 17727 ft | 258 kts | 261° |
| 2026-05-04 02:27 | 34.99147 | -105.79603 | 17250 ft | 261 kts | 261° |
| 2026-05-04 02:27 | 34.98795 | -105.81765 | 16777 ft | 263 kts | 261° |
| 2026-05-04 02:28 | 34.98443 | -105.83936 | 16307 ft | 265 kts | 261° |
| 2026-05-04 02:28 | 34.98085 | -105.86128 | 15793 ft | 263 kts | 261° |
| 2026-05-04 02:28 | 34.97729 | -105.88309 | 15309 ft | 260 kts | 261° |
| 2026-05-04 02:28 | 34.97377 | -105.90467 | 14826 ft | 258 kts | 260° |
| 2026-05-04 02:29 | 34.97030 | -105.92596 | 14346 ft | 256 kts | 260° |
| 2026-05-04 02:29 | 34.96684 | -105.94708 | 13867 ft | 254 kts | 260° |
| 2026-05-04 02:29 | 34.96339 | -105.96808 | 13378 ft | 253 kts | 260° |
| 2026-05-04 02:29 | 34.95995 | -105.98910 | 12891 ft | 252 kts | 260° |
| 2026-05-04 02:30 | 34.95683 | -106.00983 | 12417 ft | 250 kts | 265° |
| 2026-05-04 02:30 | 34.95659 | -106.03121 | 11941 ft | 249 kts | 271° |
| 2026-05-04 02:30 | 34.95680 | -106.05195 | 11475 ft | 248 kts | 270° |
| 2026-05-04 02:30 | 34.95697 | -106.07290 | 11123 ft | 241 kts | 270° |
| 2026-05-04 02:31 | 34.95717 | -106.09283 | 11099 ft | 226 kts | 270° |
| 2026-05-04 02:31 | 34.95735 | -106.11213 | 11136 ft | 239 kts | 270° |
| 2026-05-04 02:31 | 34.95755 | -106.13295 | 11124 ft | 245 kts | 270° |
| 2026-05-04 02:31 | 34.95776 | -106.15356 | 11116 ft | 240 kts | 270° |
| 2026-05-04 02:32 | 34.95796 | -106.17379 | 11122 ft | 237 kts | 270° |
| 2026-05-04 02:32 | 34.95816 | -106.19389 | 11123 ft | 238 kts | 270° |
| 2026-05-04 02:32 | 34.95835 | -106.21421 | 11129 ft | 239 kts | 270° |
| 2026-05-04 02:32 | 34.95856 | -106.23443 | 11126 ft | 239 kts | 270° |
| 2026-05-04 02:33 | 34.95875 | -106.25462 | 11124 ft | 239 kts | 270° |
| 2026-05-04 02:33 | 34.95895 | -106.27492 | 11117 ft | 238 kts | 270° |
| 2026-05-04 02:33 | 34.95914 | -106.29511 | 11120 ft | 239 kts | 270° |
| 2026-05-04 02:33 | 34.95934 | -106.31564 | 11111 ft | 240 kts | 270° |
| 2026-05-04 02:34 | 34.95953 | -106.33579 | 11103 ft | 239 kts | 270° |
| 2026-05-04 02:34 | 34.95971 | -106.35609 | 11101 ft | 239 kts | 270° |
| 2026-05-04 02:34 | 34.95988 | -106.37627 | 11090 ft | 239 kts | 269° |
| 2026-05-04 02:34 | 34.95938 | -106.39679 | 11090 ft | 239 kts | 267° |
| 2026-05-04 02:35 | 34.95871 | -106.41688 | 11095 ft | 238 kts | 268° |
| 2026-05-04 02:35 | 34.95808 | -106.43694 | 11083 ft | 239 kts | 267° |
| 2026-05-04 02:35 | 34.95742 | -106.45723 | 11100 ft | 238 kts | 267° |
| 2026-05-04 02:35 | 34.95677 | -106.47739 | 11092 ft | 237 kts | 268° |
| 2026-05-04 02:36 | 34.95612 | -106.49746 | 11080 ft | 237 kts | 268° |
| 2026-05-04 02:36 | 34.95546 | -106.51782 | 11089 ft | 238 kts | 267° |
| 2026-05-04 02:36 | 34.95480 | -106.53792 | 11085 ft | 238 kts | 267° |
| 2026-05-04 02:36 | 34.95409 | -106.55781 | 11078 ft | 237 kts | 267° |
| 2026-05-04 02:37 | 34.95319 | -106.57816 | 11076 ft | 237 kts | 266° |
| 2026-05-04 02:37 | 34.95232 | -106.59808 | 11066 ft | 238 kts | 266° |
| 2026-05-04 02:37 | 34.95143 | -106.61831 | 11067 ft | 240 kts | 267° |
| 2026-05-04 02:37 | 34.95054 | -106.63863 | 11059 ft | 238 kts | 266° |
| 2026-05-04 02:38 | 34.94965 | -106.65872 | 11058 ft | 236 kts | 266° |
| 2026-05-04 02:38 | 34.94877 | -106.67855 | 11055 ft | 236 kts | 266° |
| 2026-05-04 02:38 | 34.94770 | -106.69862 | 11049 ft | 238 kts | 264° |
| 2026-05-04 02:38 | 34.94587 | -106.71936 | 10620 ft | 251 kts | 263° |
| 2026-05-04 02:39 | 34.94397 | -106.74051 | 10111 ft | 251 kts | 263° |
| 2026-05-04 02:39 | 34.94210 | -106.76144 | 9635 ft | 247 kts | 263° |
| 2026-05-04 02:39 | 34.94026 | -106.78214 | 9154 ft | 244 kts | 263° |
| 2026-05-04 02:39 | 34.93848 | -106.80250 | 8675 ft | 242 kts | 264° |
| 2026-05-04 02:40 | 34.94062 | -106.82253 | 8211 ft | 243 kts | 291° |
| 2026-05-04 02:40 | 34.95100 | -106.83868 | 7714 ft | 246 kts | 323° |
| 2026-05-04 02:40 | 34.96663 | -106.84552 | 7442 ft | 233 kts | 356° |
| 2026-05-04 02:40 | 34.98160 | -106.84120 | 7247 ft | 215 kts | 34° |
| 2026-05-04 02:41 | 34.99158 | -106.82839 | 7291 ft | 214 kts | 57° |
| 2026-05-04 02:41 | 35.00056 | -106.81284 | 7283 ft | 224 kts | 57° |
| 2026-05-04 02:41 | 35.00947 | -106.79775 | 7238 ft | 218 kts | 57° |
| 2026-05-04 02:41 | 35.01831 | -106.78274 | 7241 ft | 216 kts | 57° |
| 2026-05-04 02:42 | 35.02693 | -106.76817 | 7237 ft | 209 kts | 56° |
| 2026-05-04 02:42 | 35.03653 | -106.75493 | 7235 ft | 204 kts | 48° |
| 2026-05-04 02:42 | 35.04334 | -106.74024 | 7224 ft | 196 kts | 84° |
| 2026-05-04 02:42 | 35.04376 | -106.72369 | 7115 ft | 204 kts | 95° |
| 2026-05-04 02:43 | 35.04402 | -106.70625 | 6744 ft | 205 kts | 93° |
| 2026-05-04 02:43 | 35.04458 | -106.68937 | 6534 ft | 185 kts | 92° |
| 2026-05-04 02:43 | 35.04500 | -106.67439 | 6247 ft | 172 kts | 96° |
| 2026-05-04 02:43 | 35.04479 | -106.66009 | 6058 ft | 161 kts | 96° |
| 2026-05-04 02:44 | 35.04475 | -106.64736 | 5965 ft | 144 kts | 96° |
| 2026-05-04 02:44 | 35.04469 | -106.63491 | 5584 ft | 152 kts | 99° |
| 2026-05-04 02:44 | 35.04450 | -106.62205 | 5433 ft | 151 kts | 96° |
| 2026-05-04 02:44 | 35.04436 | -106.60965 | 5347 ft | 137 kts | 94° |
| 2026-05-04 02:45 | 35.04423 | -106.59937 | 5346 ft | 96 kts | 92° |
| 2026-05-04 02:45 | 35.04428 | -106.59355 | 5351 ft | 40 kts | 81° |